Terminal Aerodrome Forecast
Issued by NWS

Home | Current Version | Previous Version | Text Only | Print | Product List | Glossary On
Versions: 1 2 3 4 5 6 7 8 9 10 11 12 13 14 15 16 17 18 19 20 21 22 23
000
FTUS41 KPHI 011740
TAFMIV
TAF
KMIV 011740Z 0118/0218 12006KT 2SM RA BR BKN007 OVC015
     FM012000 09006KT 4SM -SHRA BR BKN007 OVC015
     FM012300 08006KT P6SM BKN007 OVC015
     FM020400 05006KT 4SM -DZ BR OVC004
     FM021400 10006KT P6SM BKN007 OVC015=

USA.gov is the U.S. government's official web portal to all federal, state and local government web resources and services.